Saint Louis, Missouri
Traffic Map
Current Weather Conditions
Saint Louis, Missouri
Overcast
Overcast
49°
Feels Like: 47°
Wind Chill: 47° Ceiling: 1900
Heat Index: 49° Visibility: 10mi
Dew Point: 42° Wind: 5mph
Humidity: 77% Direction: 250° (WSW)
Pressure: 30.26in Gusts: 0mph
Raw Report DataKCPS 232153Z 25004KT 10SM OVC019 09/06 A3026 RMK AO2 SLP248 T00940056
Traffic Incident Summary
Active as of:
Severity:
Category:
InformationThere was an issue retrieving the traffic information for this location. Please try a different location or try again shortly.
Advertisements